createdAt,value
2022-10-22T00:00:40.450Z,6.67
2022-10-22T00:03:08.824Z,6.65
2022-10-22T00:05:36.509Z,6.62
2022-10-22T00:08:03.579Z,6.58
2022-10-22T00:10:30.772Z,6.58
2022-10-22T00:12:57.822Z,6.57
2022-10-22T00:15:24.982Z,6.58
2022-10-22T00:17:52.090Z,6.55
2022-10-22T00:20:20.559Z,6.48
2022-10-22T00:22:47.573Z,6.44
2022-10-22T00:25:14.634Z,6.41
2022-10-22T00:27:42.221Z,6.41
2022-10-22T00:30:10.497Z,6.38
2022-10-22T00:32:37.627Z,6.35
2022-10-22T00:35:05.631Z,6.33
2022-10-22T00:37:34.178Z,6.31
2022-10-22T00:40:01.164Z,6.28
2022-10-22T00:42:31.899Z,6.24
2022-10-22T00:45:07.450Z,6.18
2022-10-22T00:47:37.592Z,6.16
2022-10-22T00:50:07.810Z,6.11
2022-10-22T00:52:36.615Z,6.11
2022-10-22T00:55:04.762Z,6.07
2022-10-22T00:57:32.111Z,6.04
2022-10-22T00:59:59.392Z,5.99
2022-10-22T01:02:27.004Z,5.97
2022-10-22T01:04:54.079Z,5.97
2022-10-22T01:07:24.117Z,5.94
2022-10-22T01:10:03.110Z,5.96
2022-10-22T01:12:42.121Z,5.97
2022-10-22T01:15:18.066Z,5.97
2022-10-22T01:17:52.614Z,5.95
2022-10-22T01:20:37.418Z,5.92
2022-10-22T01:23:17.698Z,5.88
2022-10-22T01:25:53.914Z,5.80
2022-10-22T01:28:32.172Z,5.74
2022-10-22T01:31:03.512Z,5.67
2022-10-22T01:33:31.323Z,5.65
2022-10-22T01:36:00.139Z,5.64
2022-10-22T01:38:27.433Z,5.62
2022-10-22T01:40:55.604Z,5.60
2022-10-22T01:43:22.583Z,5.58
2022-10-22T01:45:52.271Z,5.55
2022-10-22T01:48:37.714Z,5.49
2022-10-22T01:51:20.239Z,5.44
2022-10-22T01:53:53.765Z,5.41
2022-10-22T01:56:36.239Z,5.39
2022-10-22T01:59:08.228Z,5.40
2022-10-22T02:01:46.258Z,5.42
2022-10-22T02:04:20.562Z,5.38
2022-10-22T02:06:50.879Z,5.36
2022-10-22T02:09:19.978Z,5.33
2022-10-22T02:11:49.154Z,5.30
2022-10-22T02:14:18.345Z,5.26
2022-10-22T02:16:48.146Z,5.19
2022-10-22T02:19:23.458Z,5.17
2022-10-22T02:21:50.226Z,5.18
2022-10-22T02:24:18.660Z,5.14
2022-10-22T02:26:51.222Z,5.13
2022-10-22T02:29:22.545Z,5.13
2022-10-22T02:31:51.598Z,5.11
2022-10-22T02:34:24.530Z,5.08
2022-10-22T02:36:52.189Z,5.07
2022-10-22T02:39:20.606Z,5.08
2022-10-22T02:41:48.273Z,5.09
2022-10-22T02:44:15.247Z,5.10
2022-10-22T02:46:43.489Z,5.07
2022-10-22T02:49:10.656Z,5.05
2022-10-22T02:51:39.032Z,5.04
2022-10-22T02:54:06.286Z,5.06
2022-10-22T02:56:33.850Z,5.07
2022-10-22T02:59:00.825Z,5.03
2022-10-22T03:01:27.919Z,4.98
2022-10-22T03:03:54.823Z,4.95
2022-10-22T03:06:21.962Z,4.93
2022-10-22T03:08:50.658Z,4.92
2022-10-22T03:11:17.635Z,4.90
2022-10-22T03:13:44.743Z,4.89
2022-10-22T03:16:11.698Z,4.86
2022-10-22T03:18:38.685Z,4.85
2022-10-22T03:21:11.176Z,4.88
2022-10-22T03:23:40.387Z,4.88
2022-10-22T03:26:09.662Z,4.90
2022-10-22T03:28:38.315Z,4.91
2022-10-22T03:31:05.736Z,4.91
2022-10-22T03:33:32.735Z,4.91
2022-10-22T03:36:00.646Z,4.89
2022-10-22T03:38:27.694Z,4.88
2022-10-22T03:40:54.739Z,4.86
2022-10-22T03:43:23.128Z,4.84
2022-10-22T03:45:50.197Z,4.83
2022-10-22T03:48:17.215Z,4.82
2022-10-22T03:50:44.156Z,4.81
2022-10-22T03:53:11.291Z,4.78
2022-10-22T03:55:38.550Z,4.77
2022-10-22T03:58:05.764Z,4.77
2022-10-22T04:00:34.888Z,4.72
2022-10-22T04:03:01.904Z,4.68
2022-10-22T04:05:28.887Z,4.62
2022-10-22T04:07:55.882Z,4.61
2022-10-22T04:10:22.987Z,4.61
2022-10-22T04:12:50.272Z,4.58
2022-10-22T04:15:17.825Z,4.58
2022-10-22T04:17:46.228Z,4.58
2022-10-22T04:20:13.225Z,4.57
2022-10-22T04:22:40.175Z,4.58
2022-10-22T04:25:07.577Z,4.61
2022-10-22T04:27:35.187Z,4.63
2022-10-22T04:30:02.594Z,4.62
2022-10-22T04:32:29.562Z,4.62
2022-10-22T04:34:57.897Z,4.62
2022-10-22T04:37:25.002Z,4.61
2022-10-22T04:39:51.990Z,4.52
2022-10-22T04:42:19.154Z,4.47
2022-10-22T04:44:46.635Z,4.43
2022-10-22T04:47:13.646Z,4.40
2022-10-22T04:49:40.820Z,4.43
2022-10-22T04:52:09.175Z,4.44
2022-10-22T04:54:36.325Z,4.45
2022-10-22T04:57:03.448Z,4.48
2022-10-22T04:59:30.473Z,4.57
2022-10-22T05:01:57.484Z,4.66
2022-10-22T05:04:24.605Z,4.75
2022-10-22T05:06:52.162Z,4.86
2022-10-22T05:09:21.132Z,5.03
2022-10-22T05:11:49.779Z,5.22
2022-10-22T05:14:19.542Z,5.42
2022-10-22T05:16:48.573Z,5.65
2022-10-22T05:19:19.793Z,5.95
2022-10-22T05:21:47.080Z,6.25
2022-10-22T05:24:14.796Z,6.52
2022-10-22T05:26:43.302Z,6.70
2022-10-22T05:29:10.326Z,6.88
2022-10-22T05:31:38.984Z,7.00
2022-10-22T05:34:05.982Z,7.31
2022-10-22T05:36:33.038Z,7.61
2022-10-22T05:39:00.374Z,7.82
2022-10-22T05:41:28.428Z,7.93
2022-10-22T05:43:57.695Z,7.84
2022-10-22T05:46:27.400Z,8.03
2022-10-22T05:48:56.361Z,8.34
2022-10-22T05:51:24.304Z,8.70
2022-10-22T05:53:52.590Z,9.10
2022-10-22T05:56:19.612Z,9.32
2022-10-22T05:58:46.878Z,9.46
2022-10-22T06:01:17.445Z,9.74
2022-10-22T06:03:44.880Z,10.07
2022-10-22T06:06:18.665Z,10.44
2022-10-22T06:08:46.855Z,10.71
2022-10-22T06:11:14.556Z,10.76
2022-10-22T06:13:41.686Z,10.83
2022-10-22T06:16:08.761Z,10.91
2022-10-22T06:18:37.174Z,11.01
2022-10-22T06:21:06.207Z,11.06
2022-10-22T06:23:33.502Z,11.32
2022-10-22T06:26:01.362Z,11.64
2022-10-22T06:28:29.200Z,11.95
2022-10-22T06:30:57.855Z,12.13
2022-10-22T06:33:24.836Z,12.52
2022-10-22T06:35:53.668Z,12.88
2022-10-22T06:38:21.017Z,13.14
2022-10-22T06:40:48.092Z,13.18
2022-10-22T06:43:15.404Z,13.10
2022-10-22T06:45:42.438Z,13.11
2022-10-22T06:48:09.660Z,13.43
2022-10-22T06:50:36.871Z,13.94
2022-10-22T06:53:05.908Z,14.45
2022-10-22T06:55:33.176Z,14.91
2022-10-22T06:58:00.211Z,15.17
2022-10-22T07:00:27.435Z,15.43
2022-10-22T07:02:57.782Z,15.56
2022-10-22T07:05:26.903Z,15.83
2022-10-22T07:07:53.865Z,15.77
2022-10-22T07:10:22.276Z,15.77
2022-10-22T07:12:49.934Z,15.65
2022-10-22T07:15:17.023Z,15.52
2022-10-22T07:17:44.005Z,15.24
2022-10-22T07:20:12.712Z,15.02
2022-10-22T07:22:40.078Z,14.93
2022-10-22T07:25:07.745Z,14.90
2022-10-22T07:27:36.435Z,14.96
2022-10-22T07:30:04.083Z,14.99
2022-10-22T07:32:31.143Z,14.93
2022-10-22T07:34:58.208Z,15.02
2022-10-22T07:37:25.153Z,15.00
2022-10-22T07:39:52.122Z,14.97
2022-10-22T07:42:19.316Z,14.92
2022-10-22T07:44:47.765Z,14.88
2022-10-22T07:47:14.722Z,14.86
2022-10-22T07:49:41.720Z,14.75
2022-10-22T07:52:08.727Z,14.70
2022-10-22T07:54:35.644Z,14.70
2022-10-22T07:57:02.608Z,14.67
2022-10-22T07:59:29.579Z,14.68
2022-10-22T08:01:57.926Z,14.69
2022-10-22T08:04:24.963Z,14.70
2022-10-22T08:06:51.925Z,14.57
2022-10-22T08:09:18.971Z,14.58
2022-10-22T08:11:46.343Z,14.58
2022-10-22T08:14:13.328Z,14.65
2022-10-22T08:16:40.310Z,14.63
2022-10-22T08:19:08.795Z,14.61
2022-10-22T08:21:35.798Z,14.69
2022-10-22T08:24:02.897Z,14.71
2022-10-22T08:26:29.905Z,14.71
2022-10-22T08:28:56.895Z,14.77
2022-10-22T08:31:23.978Z,14.85
2022-10-22T08:33:50.960Z,14.95
2022-10-22T08:36:19.327Z,15.03
2022-10-22T08:38:46.357Z,15.12
2022-10-22T08:41:15.877Z,15.24
2022-10-22T08:44:05.660Z,15.59
2022-10-22T08:46:54.432Z,16.15
2022-10-22T08:49:24.927Z,16.75
2022-10-22T08:51:53.653Z,17.27
2022-10-22T08:54:28.887Z,17.84
2022-10-22T08:57:03.689Z,18.45
2022-10-22T08:59:40.931Z,18.80
2022-10-22T09:02:21.630Z,19.28
2022-10-22T09:04:55.316Z,19.78
2022-10-22T09:07:24.566Z,20.12
2022-10-22T09:09:53.986Z,20.23
2022-10-22T09:12:23.395Z,20.10
2022-10-22T09:14:50.809Z,20.01
2022-10-22T09:17:26.281Z,20.13
2022-10-22T09:20:02.958Z,20.23
2022-10-22T09:22:37.642Z,20.20
2022-10-22T09:25:17.905Z,20.10
2022-10-22T09:27:44.983Z,20.19
2022-10-22T09:30:17.050Z,20.59
2022-10-22T09:32:44.374Z,20.74
2022-10-22T09:35:12.044Z,20.70
2022-10-22T09:37:48.478Z,21.01
2022-10-22T09:40:16.266Z,21.17
2022-10-22T09:42:44.991Z,21.46
2022-10-22T09:45:24.391Z,21.62
2022-10-22T09:48:03.342Z,21.70
2022-10-22T09:50:41.126Z,21.71
2022-10-22T09:53:17.604Z,21.92
2022-10-22T09:55:49.653Z,22.18
2022-10-22T09:58:18.317Z,22.31
2022-10-22T10:00:47.722Z,22.35
2022-10-22T10:03:20.313Z,22.16
2022-10-22T10:05:49.411Z,22.14
2022-10-22T10:08:18.259Z,22.56
2022-10-22T10:10:48.731Z,23.06
2022-10-22T10:13:32.393Z,23.32
2022-10-22T10:16:07.059Z,23.17
2022-10-22T10:18:46.873Z,23.08
2022-10-22T10:21:23.423Z,23.30
2022-10-22T10:23:58.623Z,23.63
2022-10-22T10:26:32.035Z,23.91
2022-10-22T10:29:11.855Z,24.16
2022-10-22T10:31:47.614Z,24.50
2022-10-22T10:34:27.383Z,24.46
2022-10-22T10:37:02.195Z,24.44
2022-10-22T10:39:33.709Z,24.73
2022-10-22T10:42:08.531Z,25.04
2022-10-22T10:44:44.618Z,25.38
2022-10-22T10:47:23.707Z,25.36
2022-10-22T10:49:54.255Z,25.08
2022-10-22T10:52:31.990Z,24.76
2022-10-22T10:55:13.430Z,24.64
2022-10-22T10:57:47.054Z,24.80
2022-10-22T11:00:16.490Z,24.99
2022-10-22T11:03:09.397Z,25.27
2022-10-22T11:05:39.621Z,25.67
2022-10-22T11:08:14.321Z,26.06
2022-10-22T11:10:47.241Z,26.44
2022-10-22T11:13:22.187Z,26.39
2022-10-22T11:15:55.437Z,26.25
2022-10-22T11:18:28.931Z,26.12
2022-10-22T11:21:16.725Z,26.02
2022-10-22T11:23:48.306Z,25.97
2022-10-22T11:26:24.657Z,25.89
2022-10-22T11:28:53.787Z,25.76
2022-10-22T11:31:24.850Z,25.66
2022-10-22T11:34:04.650Z,25.56
2022-10-22T11:36:38.142Z,25.53
2022-10-22T11:39:05.493Z,25.50
2022-10-22T11:41:34.677Z,25.48
2022-10-22T11:44:19.565Z,25.50
2022-10-22T11:46:53.900Z,25.54
2022-10-22T11:49:26.733Z,25.55
2022-10-22T11:52:21.607Z,25.57
2022-10-22T11:54:48.962Z,25.59
2022-10-22T11:57:25.350Z,25.62
2022-10-22T11:59:56.341Z,25.64
2022-10-22T12:02:40.287Z,25.64
2022-10-22T12:05:35.307Z,25.61
2022-10-22T12:08:24.301Z,25.51
2022-10-22T12:11:03.974Z,25.39
2022-10-22T12:13:34.410Z,25.29
2022-10-22T12:16:04.402Z,25.22
2022-10-22T12:18:39.967Z,25.12
2022-10-22T12:21:09.842Z,24.99
2022-10-22T12:23:37.584Z,24.82
2022-10-22T12:26:05.631Z,24.74
2022-10-22T12:28:40.016Z,24.68
2022-10-22T12:31:14.914Z,24.59
2022-10-22T12:33:41.605Z,24.51
2022-10-22T12:36:15.929Z,24.42
2022-10-22T12:38:47.217Z,24.42
2022-10-22T12:41:14.408Z,24.49
2022-10-22T12:43:42.771Z,24.53
2022-10-22T12:46:13.835Z,24.56
2022-10-22T12:48:44.189Z,24.73
2022-10-22T12:51:16.965Z,24.85
2022-10-22T12:53:46.660Z,24.97
2022-10-22T12:56:16.381Z,24.95
2022-10-22T12:58:49.210Z,24.97
2022-10-22T13:01:18.422Z,25.10
2022-10-22T13:03:49.877Z,25.27
2022-10-22T13:06:25.226Z,25.53
2022-10-22T13:09:13.256Z,25.58
2022-10-22T13:11:42.210Z,25.46
2022-10-22T13:14:21.553Z,25.22
2022-10-22T13:17:10.693Z,25.14
2022-10-22T13:19:47.042Z,25.16
2022-10-22T13:22:29.995Z,25.17
2022-10-22T13:24:59.769Z,25.15
2022-10-22T13:27:28.502Z,25.18
2022-10-22T13:30:01.172Z,25.25
2022-10-22T13:32:31.022Z,25.15
2022-10-22T13:35:00.326Z,25.00
2022-10-22T13:37:29.138Z,24.87
2022-10-22T13:39:56.078Z,24.72
2022-10-22T13:42:23.054Z,24.61
2022-10-22T13:44:49.978Z,24.49
2022-10-22T13:47:25.578Z,24.39
2022-10-22T13:52:35.938Z,24.25
2022-10-22T13:55:12.283Z,24.16
2022-10-22T13:57:39.253Z,24.00
2022-10-22T14:00:07.688Z,23.88
2022-10-22T14:02:41.111Z,23.76
2022-10-22T14:05:09.622Z,23.59
2022-10-22T14:07:37.235Z,23.47
2022-10-22T14:10:13.524Z,23.36
2022-10-22T14:12:40.502Z,23.24
2022-10-22T14:15:08.841Z,23.10
2022-10-22T14:17:35.845Z,23.00
2022-10-22T14:20:04.396Z,22.85
2022-10-22T14:22:31.507Z,22.78
2022-10-22T14:24:58.425Z,22.67
2022-10-22T14:27:25.380Z,22.56
2022-10-22T14:29:54.941Z,22.46
2022-10-22T14:32:24.209Z,22.38
2022-10-22T14:34:51.122Z,22.31
2022-10-22T14:37:20.762Z,22.24
2022-10-22T14:39:51.964Z,22.17
2022-10-22T14:42:19.887Z,22.09
2022-10-22T14:44:47.006Z,21.99
2022-10-22T14:47:14.030Z,21.92
2022-10-22T14:49:41.042Z,21.83
2022-10-22T14:52:10.584Z,21.75
2022-10-22T14:54:41.235Z,21.69
2022-10-22T14:57:08.885Z,21.62
2022-10-22T14:59:35.913Z,21.55
2022-10-22T15:02:03.068Z,21.48
2022-10-22T15:04:30.590Z,21.41
2022-10-22T15:06:59.175Z,21.30
2022-10-22T15:09:26.174Z,21.22
2022-10-22T15:11:54.511Z,21.14
2022-10-22T15:14:21.615Z,21.06
2022-10-22T15:16:48.558Z,20.97
2022-10-22T15:19:15.505Z,20.89
2022-10-22T15:24:09.329Z,20.73
2022-10-22T15:26:36.338Z,20.66
2022-10-22T15:29:05.182Z,20.58
2022-10-22T15:31:50.074Z,20.52
2022-10-22T15:34:23.401Z,20.46
2022-10-22T15:36:51.075Z,20.40
2022-10-22T15:39:18.459Z,20.29
2022-10-22T15:41:46.974Z,20.20
2022-10-22T15:44:17.761Z,20.16
2022-10-22T15:46:44.852Z,20.10
2022-10-22T15:49:11.969Z,20.03
2022-10-22T15:51:39.375Z,19.97
2022-10-22T15:54:10.210Z,19.94
2022-10-22T15:56:37.385Z,19.88
2022-10-22T15:59:04.707Z,19.81
2022-10-22T16:01:35.203Z,19.74
2022-10-22T16:04:02.889Z,19.68
2022-10-22T16:06:33.121Z,19.64
2022-10-22T16:09:02.015Z,19.60
2022-10-22T16:11:29.975Z,19.53
2022-10-22T16:13:58.450Z,19.50
2022-10-22T16:16:26.770Z,19.44
2022-10-22T16:18:55.131Z,19.40
2022-10-22T16:21:23.270Z,19.37
2022-10-22T16:23:50.696Z,19.33
2022-10-22T16:26:18.571Z,19.31
2022-10-22T16:28:47.390Z,19.29
2022-10-22T16:31:16.733Z,19.24
2022-10-22T16:33:46.462Z,19.19
2022-10-22T16:36:20.049Z,19.16
2022-10-22T16:38:47.832Z,19.09
2022-10-22T16:41:16.831Z,19.04
2022-10-22T16:43:45.102Z,18.99
2022-10-22T16:46:12.764Z,18.95
2022-10-22T16:48:42.073Z,18.87
2022-10-22T16:51:11.062Z,18.81
2022-10-22T16:53:39.645Z,18.75
2022-10-22T16:56:08.934Z,18.65
2022-10-22T16:58:35.914Z,18.48
2022-10-22T17:01:06.212Z,18.37
2022-10-22T17:03:33.192Z,18.34
2022-10-22T17:06:00.630Z,18.34
2022-10-22T17:08:27.686Z,18.31
2022-10-22T17:10:56.022Z,18.25
2022-10-22T17:13:23.147Z,18.23
2022-10-22T17:15:50.345Z,18.22
2022-10-22T17:18:17.519Z,18.21
2022-10-22T17:20:44.561Z,18.19
2022-10-22T17:23:11.543Z,18.20
2022-10-22T17:25:43.734Z,18.19
2022-10-22T17:28:12.287Z,18.16
2022-10-22T17:30:40.795Z,18.12
2022-10-22T17:33:08.828Z,18.08
2022-10-22T17:35:40.300Z,18.03
2022-10-22T17:38:07.547Z,17.96
2022-10-22T17:40:35.510Z,17.90
2022-10-22T17:43:02.749Z,17.85
2022-10-22T17:45:31.104Z,17.79
2022-10-22T17:47:58.206Z,17.73
2022-10-22T17:50:25.189Z,17.64
2022-10-22T17:52:52.135Z,17.58
2022-10-22T17:55:19.146Z,17.51
2022-10-22T17:57:46.165Z,17.48
2022-10-22T18:00:16.180Z,17.47
2022-10-22T18:02:44.758Z,17.44
2022-10-22T18:05:12.340Z,17.43
2022-10-22T18:07:39.318Z,17.39
2022-10-22T18:10:07.743Z,17.36
2022-10-22T18:12:35.262Z,17.36
2022-10-22T18:15:02.212Z,17.34
2022-10-22T18:17:31.805Z,17.32
2022-10-22T18:20:02.492Z,17.31
2022-10-22T18:22:29.572Z,17.29
2022-10-22T18:24:56.650Z,17.28
2022-10-22T18:27:23.674Z,17.26
2022-10-22T18:29:50.712Z,17.27
2022-10-22T18:32:17.691Z,17.26
2022-10-22T18:34:44.643Z,17.25
2022-10-22T18:37:13.037Z,17.21
2022-10-22T18:39:40.182Z,17.17
2022-10-22T18:42:07.389Z,17.15
2022-10-22T18:44:35.359Z,17.10
2022-10-22T18:47:02.381Z,17.04
2022-10-22T18:49:29.526Z,17.00
2022-10-22T18:51:56.479Z,16.99
2022-10-22T18:54:25.005Z,16.93
2022-10-22T18:56:52.774Z,16.92
2022-10-22T18:59:21.420Z,16.89
2022-10-22T19:01:48.991Z,16.84
2022-10-22T19:04:16.543Z,16.81
2022-10-22T19:06:45.786Z,16.79
2022-10-22T19:09:13.870Z,16.76
2022-10-22T19:11:42.926Z,16.72
2022-10-22T19:14:09.933Z,16.71
2022-10-22T19:16:37.700Z,16.68
2022-10-22T19:19:06.807Z,16.62
2022-10-22T19:21:34.048Z,16.56
2022-10-22T19:24:01.371Z,16.50
2022-10-22T19:26:29.905Z,16.46
2022-10-22T19:28:59.621Z,16.40
2022-10-22T19:31:29.828Z,16.33
2022-10-22T19:33:57.936Z,16.27
2022-10-22T19:36:25.440Z,16.19
2022-10-22T19:38:52.432Z,16.09
2022-10-22T19:41:21.126Z,15.99
2022-10-22T19:43:49.786Z,15.89
2022-10-22T19:46:18.534Z,15.81
2022-10-22T19:51:19.467Z,15.67
2022-10-22T19:53:47.259Z,15.59
2022-10-22T19:56:18.211Z,15.51
2022-10-22T19:58:45.275Z,15.43
2022-10-22T20:01:14.681Z,15.36
2022-10-22T20:03:43.812Z,15.30
2022-10-22T20:06:13.066Z,15.23
2022-10-22T20:08:40.613Z,15.19
2022-10-22T20:11:10.710Z,15.12
2022-10-22T20:16:05.516Z,15.04
2022-10-22T20:18:34.143Z,14.98
2022-10-22T20:21:05.183Z,14.91
2022-10-22T20:23:32.302Z,14.82
2022-10-22T20:25:59.409Z,14.73
2022-10-22T20:28:26.508Z,14.62
2022-10-22T20:30:53.559Z,14.50
2022-10-22T20:33:20.563Z,14.47
2022-10-22T20:35:57.954Z,14.45
2022-10-22T20:38:26.507Z,14.45
2022-10-22T20:41:00.267Z,14.47
2022-10-22T20:43:27.303Z,14.49
2022-10-22T20:45:54.341Z,14.53
2022-10-22T20:48:21.774Z,14.56
2022-10-22T20:50:48.725Z,14.55
2022-10-22T20:53:16.908Z,14.56
2022-10-22T20:55:45.477Z,14.58
2022-10-22T20:58:12.413Z,14.59
2022-10-22T21:00:39.808Z,14.58
2022-10-22T21:03:06.995Z,14.58
2022-10-22T21:05:34.769Z,14.57
2022-10-22T21:08:05.248Z,14.56
2022-10-22T21:10:32.694Z,14.52
2022-10-22T21:13:01.279Z,14.47
2022-10-22T21:15:28.349Z,14.45
2022-10-22T21:17:55.398Z,14.43
2022-10-22T21:20:24.747Z,14.40
2022-10-22T21:22:51.960Z,14.39
2022-10-22T21:25:18.907Z,14.39
2022-10-22T21:27:45.828Z,14.32
2022-10-22T21:30:14.414Z,14.26
2022-10-22T21:32:41.688Z,14.19
2022-10-22T21:35:08.934Z,14.19
2022-10-22T21:37:35.939Z,14.20
2022-10-22T21:40:04.389Z,14.19
2022-10-22T21:42:31.409Z,14.17
2022-10-22T21:44:58.407Z,14.12
2022-10-22T21:47:26.872Z,14.06
2022-10-22T21:49:53.934Z,14.03
2022-10-22T21:52:20.933Z,13.99
2022-10-22T21:54:48.012Z,13.95
2022-10-22T21:57:14.975Z,13.92
2022-10-22T21:59:42.046Z,13.89
2022-10-22T22:02:09.168Z,13.88
2022-10-22T22:04:37.767Z,13.83
2022-10-22T22:07:04.727Z,13.80
2022-10-22T22:09:32.003Z,13.75
2022-10-22T22:11:58.994Z,13.70
2022-10-22T22:14:26.074Z,13.65
2022-10-22T22:16:53.010Z,13.61
2022-10-22T22:19:19.948Z,13.53
2022-10-22T22:21:48.248Z,13.46
2022-10-22T22:24:15.219Z,13.37
2022-10-22T22:26:42.175Z,13.33
2022-10-22T22:29:10.718Z,13.31
2022-10-22T22:31:37.680Z,13.28
2022-10-22T22:34:07.874Z,13.27
2022-10-22T22:36:37.190Z,13.25
2022-10-22T22:39:07.318Z,13.24
2022-10-22T22:41:34.686Z,13.21
2022-10-22T22:44:01.942Z,13.17
2022-10-22T22:46:29.426Z,13.14
2022-10-22T22:48:56.381Z,13.12
2022-10-22T22:51:23.398Z,13.10
2022-10-22T22:53:50.489Z,13.06
2022-10-22T22:56:21.178Z,13.02
2022-10-22T22:58:48.591Z,12.98
2022-10-22T23:01:17.735Z,12.96
2022-10-22T23:03:46.059Z,12.94
2022-10-22T23:06:13.458Z,12.90
2022-10-22T23:08:41.283Z,12.87
2022-10-22T23:11:11.230Z,12.84
2022-10-22T23:13:40.829Z,12.79
2022-10-22T23:16:09.246Z,12.76
2022-10-22T23:18:36.511Z,12.74
2022-10-22T23:21:05.319Z,12.74
2022-10-22T23:23:32.699Z,12.68
2022-10-22T23:25:59.773Z,12.66
2022-10-22T23:28:27.094Z,12.65
2022-10-22T23:30:55.454Z,12.59
2022-10-22T23:33:22.482Z,12.54
2022-10-22T23:35:49.442Z,12.50
2022-10-22T23:38:16.471Z,12.50
2022-10-22T23:40:43.386Z,12.48
2022-10-22T23:43:10.356Z,12.46
2022-10-22T23:45:37.426Z,12.42
2022-10-22T23:48:06.176Z,12.40
2022-10-22T23:50:35.853Z,12.39
2022-10-22T23:53:02.845Z,12.38
2022-10-22T23:55:29.843Z,12.38
2022-10-22T23:57:56.838Z,12.35
